sensor_id;sensor_type;location;lat;lon;timestamp;pressure;altitude;pressure_sealevel;temperature;humidity
8653;BME280;4364;52.426;9.424;2022-09-03T00:01:13;101120.41;;;15.20;50.17
8653;BME280;4364;52.426;9.424;2022-09-03T00:03:48;101121.34;;;15.15;50.58
8653;BME280;4364;52.426;9.424;2022-09-03T00:06:30;101115.31;;;15.13;50.58
8653;BME280;4364;52.426;9.424;2022-09-03T00:09:26;101113.19;;;15.10;50.51
8653;BME280;4364;52.426;9.424;2022-09-03T00:12:17;101111.69;;;15.18;50.29
8653;BME280;4364;52.426;9.424;2022-09-03T00:15:00;101109.41;;;15.06;50.47
8653;BME280;4364;52.426;9.424;2022-09-03T00:17:50;101112.44;;;15.05;50.99
8653;BME280;4364;52.426;9.424;2022-09-03T00:20:50;101109.13;;;14.89;51.37
8653;BME280;4364;52.426;9.424;2022-09-03T00:23:23;101102.69;;;14.79;52.00
8653;BME280;4364;52.426;9.424;2022-09-03T00:26:02;101098.84;;;14.80;51.91
8653;BME280;4364;52.426;9.424;2022-09-03T00:31:13;101096.97;;;14.76;52.07
8653;BME280;4364;52.426;9.424;2022-09-03T00:33:46;101094.25;;;14.76;52.24
8653;BME280;4364;52.426;9.424;2022-09-03T00:36:20;101096.63;;;14.82;52.35
8653;BME280;4364;52.426;9.424;2022-09-03T00:38:48;101091.56;;;14.90;52.21
8653;BME280;4364;52.426;9.424;2022-09-03T00:41:34;101093.00;;;14.87;52.60
8653;BME280;4364;52.426;9.424;2022-09-03T00:44:24;101096.19;;;14.75;52.71
8653;BME280;4364;52.426;9.424;2022-09-03T00:46:59;101096.63;;;14.63;53.33
8653;BME280;4364;52.426;9.424;2022-09-03T00:49:54;101091.47;;;14.57;53.16
8653;BME280;4364;52.426;9.424;2022-09-03T01:00:05;101085.88;;;14.43;53.68
8653;BME280;4364;52.426;9.424;2022-09-03T01:08:34;101084.56;;;14.40;54.49
8653;BME280;4364;52.426;9.424;2022-09-03T01:11:23;101091.13;;;14.39;54.10
8653;BME280;4364;52.426;9.424;2022-09-03T01:25:07;101082.41;;;14.13;54.54
8653;BME280;4364;52.426;9.424;2022-09-03T01:27:45;101083.44;;;13.98;55.29
8653;BME280;4364;52.426;9.424;2022-09-03T01:30:17;101082.44;;;13.89;55.11
8653;BME280;4364;52.426;9.424;2022-09-03T01:35:37;101087.31;;;13.92;55.51
8653;BME280;4364;52.426;9.424;2022-09-03T01:38:26;101084.59;;;13.92;56.10
8653;BME280;4364;52.426;9.424;2022-09-03T01:47:01;101091.38;;;13.95;56.22
8653;BME280;4364;52.426;9.424;2022-09-03T01:49:47;101093.88;;;13.91;56.12
8653;BME280;4364;52.426;9.424;2022-09-03T01:52:47;101099.91;;;13.88;56.58
8653;BME280;4364;52.426;9.424;2022-09-03T02:00:45;101094.56;;;13.78;56.52
8653;BME280;4364;52.426;9.424;2022-09-03T02:03:15;101098.75;;;13.70;56.75
8653;BME280;4364;52.426;9.424;2022-09-03T02:05:51;101097.75;;;13.61;56.60
8653;BME280;4364;52.426;9.424;2022-09-03T02:08:18;101092.78;;;13.63;57.09
8653;BME280;4364;52.426;9.424;2022-09-03T02:10:55;101099.09;;;13.63;57.31
8653;BME280;4364;52.426;9.424;2022-09-03T02:13:33;101097.50;;;13.57;57.47
8653;BME280;4364;52.426;9.424;2022-09-03T02:16:13;101090.41;;;13.56;57.09
8653;BME280;4364;52.426;9.424;2022-09-03T02:19:03;101100.03;;;13.48;57.42
8653;BME280;4364;52.426;9.424;2022-09-03T02:21:34;101099.16;;;13.53;57.68
8653;BME280;4364;52.426;9.424;2022-09-03T02:24:02;101101.94;;;13.48;57.58
8653;BME280;4364;52.426;9.424;2022-09-03T02:26:29;101099.25;;;13.43;57.78
8653;BME280;4364;52.426;9.424;2022-09-03T02:28:56;101103.88;;;13.47;57.86
8653;BME280;4364;52.426;9.424;2022-09-03T02:31:23;101100.38;;;13.42;57.45
8653;BME280;4364;52.426;9.424;2022-09-03T02:33:50;101098.44;;;13.42;57.65
8653;BME280;4364;52.426;9.424;2022-09-03T02:36:20;101098.50;;;13.37;58.07
8653;BME280;4364;52.426;9.424;2022-09-03T02:38:51;101090.34;;;13.32;57.66
8653;BME280;4364;52.426;9.424;2022-09-03T02:41:17;101097.47;;;13.23;58.16
8653;BME280;4364;52.426;9.424;2022-09-03T02:43:48;101098.09;;;13.14;58.59
8653;BME280;4364;52.426;9.424;2022-09-03T02:46:22;101096.75;;;13.12;58.99
8653;BME280;4364;52.426;9.424;2022-09-03T02:48:53;101102.72;;;13.14;58.82
8653;BME280;4364;52.426;9.424;2022-09-03T02:51:20;101091.53;;;13.15;58.41
8653;BME280;4364;52.426;9.424;2022-09-03T02:53:46;101095.06;;;13.16;58.80
8653;BME280;4364;52.426;9.424;2022-09-03T02:56:16;101104.38;;;13.15;58.74
8653;BME280;4364;52.426;9.424;2022-09-03T02:58:43;101100.09;;;13.04;59.12
8653;BME280;4364;52.426;9.424;2022-09-03T03:01:09;101099.63;;;12.91;59.00
8653;BME280;4364;52.426;9.424;2022-09-03T03:03:43;101100.97;;;12.94;59.68
8653;BME280;4364;52.426;9.424;2022-09-03T03:06:10;101096.91;;;12.86;59.49
8653;BME280;4364;52.426;9.424;2022-09-03T03:08:39;101094.22;;;12.81;59.81
8653;BME280;4364;52.426;9.424;2022-09-03T03:11:06;101091.50;;;12.76;60.45
8653;BME280;4364;52.426;9.424;2022-09-03T03:13:32;101086.38;;;12.69;60.32
8653;BME280;4364;52.426;9.424;2022-09-03T03:16:01;101090.16;;;12.78;59.99
8653;BME280;4364;52.426;9.424;2022-09-03T03:18:28;101090.97;;;12.74;60.07
8653;BME280;4364;52.426;9.424;2022-09-03T03:20:55;101081.22;;;12.63;60.79
8653;BME280;4364;52.426;9.424;2022-09-03T03:23:22;101079.59;;;12.62;61.01
8653;BME280;4364;52.426;9.424;2022-09-03T03:25:48;101082.28;;;12.72;61.00
8653;BME280;4364;52.426;9.424;2022-09-03T03:28:15;101081.16;;;12.73;60.68
8653;BME280;4364;52.426;9.424;2022-09-03T03:30:44;101084.97;;;12.77;60.51
8653;BME280;4364;52.426;9.424;2022-09-03T03:33:14;101094.22;;;12.81;60.38
8653;BME280;4364;52.426;9.424;2022-09-03T03:35:40;101084.66;;;12.84;60.62
8653;BME280;4364;52.426;9.424;2022-09-03T03:38:08;101087.94;;;12.81;60.07
8653;BME280;4364;52.426;9.424;2022-09-03T03:40:37;101089.59;;;12.82;60.34
8653;BME280;4364;52.426;9.424;2022-09-03T03:43:03;101086.59;;;12.78;60.28
8653;BME280;4364;52.426;9.424;2022-09-03T03:45:30;101091.81;;;12.69;60.97
8653;BME280;4364;52.426;9.424;2022-09-03T03:47:57;101084.19;;;12.66;60.48
8653;BME280;4364;52.426;9.424;2022-09-03T03:50:29;101091.59;;;12.60;61.06
8653;BME280;4364;52.426;9.424;2022-09-03T03:52:59;101089.97;;;12.59;61.05
8653;BME280;4364;52.426;9.424;2022-09-03T03:55:27;101087.22;;;12.65;60.92
8653;BME280;4364;52.426;9.424;2022-09-03T03:57:57;101093.53;;;12.60;61.25
8653;BME280;4364;52.426;9.424;2022-09-03T04:00:24;101091.63;;;12.55;61.32
8653;BME280;4364;52.426;9.424;2022-09-03T04:02:50;101088.91;;;12.55;61.47
8653;BME280;4364;52.426;9.424;2022-09-03T04:05:21;101099.25;;;12.58;61.02
8653;BME280;4364;52.426;9.424;2022-09-03T04:07:49;101094.34;;;12.60;61.22
8653;BME280;4364;52.426;9.424;2022-09-03T04:10:16;101091.88;;;12.59;61.19
8653;BME280;4364;52.426;9.424;2022-09-03T04:12:43;101084.22;;;12.61;60.81
8653;BME280;4364;52.426;9.424;2022-09-03T04:15:09;101092.44;;;12.56;61.04
8653;BME280;4364;52.426;9.424;2022-09-03T04:17:36;101095.44;;;12.54;61.24
8653;BME280;4364;52.426;9.424;2022-09-03T04:20:03;101089.75;;;12.51;61.12
8653;BME280;4364;52.426;9.424;2022-09-03T04:22:30;101088.94;;;12.50;61.03
8653;BME280;4364;52.426;9.424;2022-09-03T04:24:59;101090.56;;;12.51;61.48
8653;BME280;4364;52.426;9.424;2022-09-03T04:27:26;101092.41;;;12.61;61.23
8653;BME280;4364;52.426;9.424;2022-09-03T04:29:59;101087.81;;;12.56;61.12
8653;BME280;4364;52.426;9.424;2022-09-03T04:32:27;101090.56;;;12.56;61.08
8653;BME280;4364;52.426;9.424;2022-09-03T04:35:12;101087.81;;;12.56;61.03
8653;BME280;4364;52.426;9.424;2022-09-03T04:37:38;101090.81;;;12.55;61.06
8653;BME280;4364;52.426;9.424;2022-09-03T04:40:05;101084.00;;;12.52;60.84
8653;BME280;4364;52.426;9.424;2022-09-03T04:42:32;101084.09;;;12.32;61.45
8653;BME280;4364;52.426;9.424;2022-09-03T04:44:59;101092.34;;;12.21;62.15
8653;BME280;4364;52.426;9.424;2022-09-03T04:47:28;101092.88;;;12.18;62.36
8653;BME280;4364;52.426;9.424;2022-09-03T04:49:54;101095.09;;;12.11;62.53
8653;BME280;4364;52.426;9.424;2022-09-03T04:52:21;101097.81;;;12.06;62.96
8653;BME280;4364;52.426;9.424;2022-09-03T04:54:49;101094.81;;;12.02;62.97
8653;BME280;4364;52.426;9.424;2022-09-03T04:57:15;101103.28;;;11.96;62.89
8653;BME280;4364;52.426;9.424;2022-09-03T04:59:49;101094.84;;;11.87;63.56
8653;BME280;4364;52.426;9.424;2022-09-03T05:02:16;101091.84;;;11.83;63.67
8653;BME280;4364;52.426;9.424;2022-09-03T05:04:43;101095.66;;;11.82;63.97
8653;BME280;4364;52.426;9.424;2022-09-03T05:07:09;101078.50;;;11.87;63.97
8653;BME280;4364;52.426;9.424;2022-09-03T05:09:36;101096.50;;;11.93;64.26
8653;BME280;4364;52.426;9.424;2022-09-03T05:12:03;101092.38;;;12.01;63.97
8653;BME280;4364;52.426;9.424;2022-09-03T05:14:29;101087.50;;;12.03;63.89
8653;BME280;4364;52.426;9.424;2022-09-03T05:16:56;101090.19;;;12.08;64.18
8653;BME280;4364;52.426;9.424;2022-09-03T05:19:23;101089.91;;;12.10;63.80
8653;BME280;4364;52.426;9.424;2022-09-03T05:21:49;101093.94;;;12.22;64.01
8653;BME280;4364;52.426;9.424;2022-09-03T05:24:17;101082.44;;;12.36;63.30
8653;BME280;4364;52.426;9.424;2022-09-03T05:26:44;101086.78;;;12.42;62.90
8653;BME280;4364;52.426;9.424;2022-09-03T05:29:10;101078.28;;;12.54;62.83
8653;BME280;4364;52.426;9.424;2022-09-03T05:31:38;101074.47;;;12.55;62.96
8653;BME280;4364;52.426;9.424;2022-09-03T05:34:05;101077.97;;;12.60;62.82
8653;BME280;4364;52.426;9.424;2022-09-03T05:36:34;101076.50;;;12.78;62.09
8653;BME280;4364;52.426;9.424;2022-09-03T05:39:01;101088.19;;;12.84;61.99
8653;BME280;4364;52.426;9.424;2022-09-03T05:41:28;101090.13;;;12.84;61.72
8653;BME280;4364;52.426;9.424;2022-09-03T05:43:56;101084.38;;;12.85;62.06
8653;BME280;4364;52.426;9.424;2022-09-03T05:46:26;101086.78;;;12.92;61.47
8653;BME280;4364;52.426;9.424;2022-09-03T05:49:01;101083.97;;;13.02;61.06
8653;BME280;4364;52.426;9.424;2022-09-03T05:51:28;101079.84;;;13.10;61.07
8653;BME280;4364;52.426;9.424;2022-09-03T05:53:56;101082.72;;;13.24;60.39
8653;BME280;4364;52.426;9.424;2022-09-03T05:56:25;101084.03;;;13.37;60.17
8653;BME280;4364;52.426;9.424;2022-09-03T05:58:54;101086.50;;;13.33;60.46
8653;BME280;4364;52.426;9.424;2022-09-03T06:01:27;101082.81;;;13.48;59.19
8653;BME280;4364;52.426;9.424;2022-09-03T06:03:57;101082.28;;;13.46;59.70
8653;BME280;4364;52.426;9.424;2022-09-03T06:06:25;101093.47;;;13.49;59.80
8653;BME280;4364;52.426;9.424;2022-09-03T06:08:54;101088.56;;;13.51;59.41
8653;BME280;4364;52.426;9.424;2022-09-03T06:11:28;101093.38;;;13.60;59.44
8653;BME280;4364;52.426;9.424;2022-09-03T06:13:56;101087.53;;;13.71;58.80
8653;BME280;4364;52.426;9.424;2022-09-03T06:16:24;101092.69;;;13.73;58.96
8653;BME280;4364;52.426;9.424;2022-09-03T06:18:58;101088.28;;;13.77;59.13
8653;BME280;4364;52.426;9.424;2022-09-03T06:21:26;101088.69;;;13.89;58.45
8653;BME280;4364;52.426;9.424;2022-09-03T06:23:56;101101.69;;;14.03;57.65
8653;BME280;4364;52.426;9.424;2022-09-03T06:26:26;101095.75;;;13.96;58.24
8653;BME280;4364;52.426;9.424;2022-09-03T06:28:54;101088.09;;;14.22;57.30
8653;BME280;4364;52.426;9.424;2022-09-03T06:31:22;101090.88;;;14.17;57.38
8653;BME280;4364;52.426;9.424;2022-09-03T06:33:49;101083.84;;;14.11;57.61
8653;BME280;4364;52.426;9.424;2022-09-03T06:36:18;101090.75;;;14.27;57.60
8653;BME280;4364;52.426;9.424;2022-09-03T06:38:45;101092.91;;;14.30;56.92
8653;BME280;4364;52.426;9.424;2022-09-03T06:43:41;101098.34;;;14.54;56.21
8653;BME280;4364;52.426;9.424;2022-09-03T06:46:11;101092.28;;;14.57;56.24
8653;BME280;4364;52.426;9.424;2022-09-03T06:48:38;101101.28;;;14.58;56.47
8653;BME280;4364;52.426;9.424;2022-09-03T06:51:13;101096.13;;;14.56;56.17
8653;BME280;4364;52.426;9.424;2022-09-03T06:53:43;101094.09;;;14.67;55.87
8653;BME280;4364;52.426;9.424;2022-09-03T06:56:12;101107.84;;;14.81;55.35
8653;BME280;4364;52.426;9.424;2022-09-03T06:58:49;101101.28;;;15.01;54.71
8653;BME280;4364;52.426;9.424;2022-09-03T07:01:21;101100.38;;;15.06;54.70
8653;BME280;4364;52.426;9.424;2022-09-03T07:03:52;101105.28;;;15.09;54.95
8653;BME280;4364;52.426;9.424;2022-09-03T07:06:25;101092.09;;;15.11;54.75
8653;BME280;4364;52.426;9.424;2022-09-03T07:08:53;101097.47;;;15.16;54.52
8653;BME280;4364;52.426;9.424;2022-09-03T07:11:21;101109.84;;;15.13;54.76
8653;BME280;4364;52.426;9.424;2022-09-03T07:13:50;101105.19;;;15.14;54.72
8653;BME280;4364;52.426;9.424;2022-09-03T07:16:20;101096.91;;;15.19;54.65
8653;BME280;4364;52.426;9.424;2022-09-03T07:18:50;101103.38;;;15.23;54.92
8653;BME280;4364;52.426;9.424;2022-09-03T07:21:24;101096.25;;;15.41;53.75
8653;BME280;4364;52.426;9.424;2022-09-03T07:23:52;101091.84;;;15.59;53.40
8653;BME280;4364;52.426;9.424;2022-09-03T07:26:34;101097.50;;;15.49;53.49
8653;BME280;4364;52.426;9.424;2022-09-03T07:29:01;101101.38;;;15.62;53.35
8653;BME280;4364;52.426;9.424;2022-09-03T07:31:33;101097.63;;;15.57;53.49
8653;BME280;4364;52.426;9.424;2022-09-03T07:34:04;101106.75;;;15.67;53.62
8653;BME280;4364;52.426;9.424;2022-09-03T07:39:10;101100.75;;;15.84;52.73
8653;BME280;4364;52.426;9.424;2022-09-03T07:41:37;101096.19;;;15.79;53.26
8653;BME280;4364;52.426;9.424;2022-09-03T07:44:04;101092.63;;;15.92;52.47
8653;BME280;4364;52.426;9.424;2022-09-03T07:46:33;101091.50;;;15.93;52.72
8653;BME280;4364;52.426;9.424;2022-09-03T07:49:00;101094.47;;;16.11;52.10
8653;BME280;4364;52.426;9.424;2022-09-03T07:51:32;101088.28;;;16.19;52.10
8653;BME280;4364;52.426;9.424;2022-09-03T07:54:00;101088.56;;;16.32;51.83
8653;BME280;4364;52.426;9.424;2022-09-03T07:56:28;101085.41;;;16.38;51.54
8653;BME280;4364;52.426;9.424;2022-09-03T07:58:57;101072.72;;;16.42;51.08
8653;BME280;4364;52.426;9.424;2022-09-03T08:01:26;101086.78;;;16.63;50.62
8653;BME280;4364;52.426;9.424;2022-09-03T08:03:59;101094.06;;;16.82;50.21
8653;BME280;4364;52.426;9.424;2022-09-03T08:06:28;101093.16;;;16.87;50.22
8653;BME280;4364;52.426;9.424;2022-09-03T08:08:56;101085.41;;;17.02;50.32
8653;BME280;4364;52.426;9.424;2022-09-03T08:11:30;101087.91;;;17.13;49.31
8653;BME280;4364;52.426;9.424;2022-09-03T08:14:03;101095.41;;;17.21;49.52
8653;BME280;4364;52.426;9.424;2022-09-03T08:16:34;101088.72;;;17.36;48.91
8653;BME280;4364;52.426;9.424;2022-09-03T08:19:01;101090.94;;;17.56;48.38
8653;BME280;4364;52.426;9.424;2022-09-03T08:21:28;101087.41;;;17.65;47.91
8653;BME280;4364;52.426;9.424;2022-09-03T08:23:55;101087.91;;;17.67;48.43
8653;BME280;4364;52.426;9.424;2022-09-03T08:26:33;101094.94;;;17.82;48.00
8653;BME280;4364;52.426;9.424;2022-09-03T08:29:00;101087.44;;;17.96;47.44
8653;BME280;4364;52.426;9.424;2022-09-03T08:31:27;101087.50;;;18.22;46.65
8653;BME280;4364;52.426;9.424;2022-09-03T08:33:57;101081.22;;;18.30;46.11
8653;BME280;4364;52.426;9.424;2022-09-03T08:36:26;101094.34;;;18.33;45.84
8653;BME280;4364;52.426;9.424;2022-09-03T08:38:56;101088.72;;;18.47;45.48
8653;BME280;4364;52.426;9.424;2022-09-03T08:47:22;101089.56;;;18.65;44.97
8653;BME280;4364;52.426;9.424;2022-09-03T08:49:55;101088.28;;;18.72;44.62
8653;BME280;4364;52.426;9.424;2022-09-03T08:52:39;101088.75;;;18.82;44.65
8653;BME280;4364;52.426;9.424;2022-09-03T08:55:26;101087.50;;;18.97;44.71
8653;BME280;4364;52.426;9.424;2022-09-03T08:58:10;101085.88;;;19.14;43.85
8653;BME280;4364;52.426;9.424;2022-09-03T09:01:03;101085.38;;;19.20;43.02
8653;BME280;4364;52.426;9.424;2022-09-03T09:09:23;101082.25;;;19.48;42.52
8653;BME280;4364;52.426;9.424;2022-09-03T09:12:07;101086.91;;;19.65;42.35
8653;BME280;4364;52.426;9.424;2022-09-03T09:14:46;101086.25;;;19.59;42.22
8653;BME280;4364;52.426;9.424;2022-09-03T09:20:04;101076.47;;;19.88;41.65
8653;BME280;4364;52.426;9.424;2022-09-03T09:22:39;101074.06;;;19.87;41.71
8653;BME280;4364;52.426;9.424;2022-09-03T09:25:14;101069.75;;;20.07;41.38
8653;BME280;4364;52.426;9.424;2022-09-03T09:28:01;101066.59;;;20.17;41.04
8653;BME280;4364;52.426;9.424;2022-09-03T09:30:30;101066.97;;;20.36;40.66
8653;BME280;4364;52.426;9.424;2022-09-03T09:32:58;101069.75;;;20.58;39.71
8653;BME280;4364;52.426;9.424;2022-09-03T09:35:26;101069.69;;;20.45;40.37
8653;BME280;4364;52.426;9.424;2022-09-03T09:37:58;101064.41;;;20.52;39.99
8653;BME280;4364;52.426;9.424;2022-09-03T09:40:29;101057.09;;;20.78;38.89
8653;BME280;4364;52.426;9.424;2022-09-03T09:43:13;101049.22;;;20.88;39.00
8653;BME280;4364;52.426;9.424;2022-09-03T09:45:46;101049.47;;;20.96;38.13
8653;BME280;4364;52.426;9.424;2022-09-03T09:48:30;101054.50;;;21.15;37.77
8653;BME280;4364;52.426;9.424;2022-09-03T09:51:09;101045.31;;;21.23;37.66
8653;BME280;4364;52.426;9.424;2022-09-03T09:53:37;101040.97;;;21.34;37.48
8653;BME280;4364;52.426;9.424;2022-09-03T09:56:05;101035.78;;;21.33;37.43
8653;BME280;4364;52.426;9.424;2022-09-03T09:58:33;101037.22;;;21.51;36.85
8653;BME280;4364;52.426;9.424;2022-09-03T10:01:16;101041.63;;;21.64;36.71
8653;BME280;4364;52.426;9.424;2022-09-03T10:03:53;101033.56;;;21.72;36.64
8653;BME280;4364;52.426;9.424;2022-09-03T10:06:23;101039.81;;;22.06;36.66
8653;BME280;4364;52.426;9.424;2022-09-03T10:09:19;101021.78;;;22.12;35.48
8653;BME280;4364;52.426;9.424;2022-09-03T10:12:23;101028.81;;;22.21;34.67
8653;BME280;4364;52.426;9.424;2022-09-03T10:15:07;101034.13;;;22.27;34.57
8653;BME280;4364;52.426;9.424;2022-09-03T10:17:45;101028.13;;;22.25;34.39
8653;BME280;4364;52.426;9.424;2022-09-03T10:23:04;101027.16;;;22.57;33.33
8653;BME280;4364;52.426;9.424;2022-09-03T10:25:44;101024.84;;;22.60;33.00
8653;BME280;4364;52.426;9.424;2022-09-03T10:28:21;101018.66;;;22.79;33.22
8653;BME280;4364;52.426;9.424;2022-09-03T10:31:22;101015.41;;;22.89;32.93
8653;BME280;4364;52.426;9.424;2022-09-03T10:34:15;101022.34;;;22.83;32.98
8653;BME280;4364;52.426;9.424;2022-09-03T10:50:54;101003.13;;;23.18;31.96
8653;BME280;4364;52.426;9.424;2022-09-03T10:56:04;100996.63;;;23.42;32.61
8653;BME280;4364;52.426;9.424;2022-09-03T11:04:16;100992.66;;;23.75;31.30
8653;BME280;4364;52.426;9.424;2022-09-03T11:06:51;101003.16;;;23.50;31.98
8653;BME280;4364;52.426;9.424;2022-09-03T11:09:42;100987.59;;;23.61;32.16
8653;BME280;4364;52.426;9.424;2022-09-03T11:12:16;100991.69;;;23.52;31.81
8653;BME280;4364;52.426;9.424;2022-09-03T11:15:03;100988.56;;;23.69;31.91
8653;BME280;4364;52.426;9.424;2022-09-03T11:17:40;100987.13;;;23.91;31.43
8653;BME280;4364;52.426;9.424;2022-09-03T11:20:16;100991.63;;;23.96;31.17
8653;BME280;4364;52.426;9.424;2022-09-03T11:22:46;100985.94;;;23.92;31.58
8653;BME280;4364;52.426;9.424;2022-09-03T11:25:15;100982.81;;;23.94;31.65
8653;BME280;4364;52.426;9.424;2022-09-03T11:28:04;100986.75;;;23.77;31.51
8653;BME280;4364;52.426;9.424;2022-09-03T11:30:46;100979.06;;;23.70;31.65
8653;BME280;4364;52.426;9.424;2022-09-03T11:33:19;100977.38;;;23.97;31.38
8653;BME280;4364;52.426;9.424;2022-09-03T11:35:55;100969.50;;;24.19;31.37
8653;BME280;4364;52.426;9.424;2022-09-03T11:38:26;100969.78;;;24.14;31.33
8653;BME280;4364;52.426;9.424;2022-09-03T11:41:13;100975.69;;;24.12;31.34
8653;BME280;4364;52.426;9.424;2022-09-03T11:43:41;100990.19;;;24.21;30.64
8653;BME280;4364;52.426;9.424;2022-09-03T11:46:26;100965.94;;;24.38;30.36
8653;BME280;4364;52.426;9.424;2022-09-03T11:48:55;100970.78;;;24.05;30.87
8653;BME280;4364;52.426;9.424;2022-09-03T11:56:29;100968.44;;;24.43;30.47
8653;BME280;4364;52.426;9.424;2022-09-03T12:01:46;100945.91;;;24.48;30.82
8653;BME280;4364;52.426;9.424;2022-09-03T12:04:24;100960.94;;;24.63;29.88
8653;BME280;4364;52.426;9.424;2022-09-03T12:10:00;100954.34;;;24.71;29.85
8653;BME280;4364;52.426;9.424;2022-09-03T12:13:04;100951.97;;;24.73;29.70
8653;BME280;4364;52.426;9.424;2022-09-03T12:16:07;100948.91;;;24.78;29.56
8653;BME280;4364;52.426;9.424;2022-09-03T12:18:40;100950.88;;;24.98;29.44
8653;BME280;4364;52.426;9.424;2022-09-03T12:21:09;100942.00;;;24.92;30.44
8653;BME280;4364;52.426;9.424;2022-09-03T12:23:48;100946.28;;;24.66;30.05
8653;BME280;4364;52.426;9.424;2022-09-03T12:26:20;100941.81;;;24.81;30.04
8653;BME280;4364;52.426;9.424;2022-09-03T12:28:52;100951.91;;;24.70;29.48
8653;BME280;4364;52.426;9.424;2022-09-03T12:31:28;100943.00;;;24.60;30.11
8653;BME280;4364;52.426;9.424;2022-09-03T12:34:04;100935.19;;;24.66;30.07
8653;BME280;4364;52.426;9.424;2022-09-03T12:39:17;100940.63;;;24.82;29.60
8653;BME280;4364;52.426;9.424;2022-09-03T12:42:01;100944.63;;;25.04;29.29
8653;BME280;4364;52.426;9.424;2022-09-03T12:44:39;100940.97;;;25.00;28.95
8653;BME280;4364;52.426;9.424;2022-09-03T12:50:05;100935.03;;;25.02;28.75
8653;BME280;4364;52.426;9.424;2022-09-03T12:55:43;100931.44;;;25.47;28.54
8653;BME280;4364;52.426;9.424;2022-09-03T13:00:49;100914.84;;;24.85;28.93
8653;BME280;4364;52.426;9.424;2022-09-03T13:03:23;100927.66;;;24.90;28.74
8653;BME280;4364;52.426;9.424;2022-09-03T13:06:08;100920.88;;;25.10;28.22
8653;BME280;4364;52.426;9.424;2022-09-03T13:09:02;100913.81;;;25.17;28.50
8653;BME280;4364;52.426;9.424;2022-09-03T13:11:32;100900.41;;;24.99;28.36
8653;BME280;4364;52.426;9.424;2022-09-03T13:14:07;100912.19;;;24.92;28.67
8653;BME280;4364;52.426;9.424;2022-09-03T13:25:15;100911.06;;;25.40;28.03
8653;BME280;4364;52.426;9.424;2022-09-03T13:33:40;100907.09;;;24.94;28.62
8653;BME280;4364;52.426;9.424;2022-09-03T13:36:14;100913.72;;;25.09;28.36
8653;BME280;4364;52.426;9.424;2022-09-03T13:38:57;100906.53;;;25.08;28.17
8653;BME280;4364;52.426;9.424;2022-09-03T13:41:45;100902.63;;;25.13;28.05
8653;BME280;4364;52.426;9.424;2022-09-03T13:44:36;100916.19;;;25.14;28.10
8653;BME280;4364;52.426;9.424;2022-09-03T13:47:21;100915.31;;;25.10;28.05
8653;BME280;4364;52.426;9.424;2022-09-03T13:49:57;100916.97;;;25.15;27.77
8653;BME280;4364;52.426;9.424;2022-09-03T13:52:55;100914.03;;;25.27;27.66
8653;BME280;4364;52.426;9.424;2022-09-03T13:58:10;100915.75;;;25.36;27.34
8653;BME280;4364;52.426;9.424;2022-09-03T14:00:48;100912.81;;;25.51;27.35
8653;BME280;4364;52.426;9.424;2022-09-03T14:03:47;100913.84;;;25.40;27.21
8653;BME280;4364;52.426;9.424;2022-09-03T14:06:45;100915.06;;;25.42;27.59
8653;BME280;4364;52.426;9.424;2022-09-03T14:09:28;100907.91;;;25.41;27.15
8653;BME280;4364;52.426;9.424;2022-09-03T14:18:12;100906.38;;;25.47;26.75
8653;BME280;4364;52.426;9.424;2022-09-03T14:21:00;100905.69;;;25.54;27.22
8653;BME280;4364;52.426;9.424;2022-09-03T14:23:39;100905.34;;;25.32;27.54
8653;BME280;4364;52.426;9.424;2022-09-03T14:26:16;100895.47;;;25.12;27.54
8653;BME280;4364;52.426;9.424;2022-09-03T14:40:12;100914.00;;;24.81;27.89
8653;BME280;4364;52.426;9.424;2022-09-03T14:48:41;100900.94;;;25.28;27.43
8653;BME280;4364;52.426;9.424;2022-09-03T14:51:25;100895.06;;;25.33;27.31
8653;BME280;4364;52.426;9.424;2022-09-03T14:54:23;100889.25;;;25.22;27.41
8653;BME280;4364;52.426;9.424;2022-09-03T14:57:24;100887.81;;;25.28;27.18
8653;BME280;4364;52.426;9.424;2022-09-03T15:00:17;100894.97;;;25.06;27.66
8653;BME280;4364;52.426;9.424;2022-09-03T15:03:14;100891.03;;;25.30;27.42
8653;BME280;4364;52.426;9.424;2022-09-03T15:08:49;100898.75;;;24.94;28.14
8653;BME280;4364;52.426;9.424;2022-09-03T15:11:23;100893.56;;;24.93;27.17
8653;BME280;4364;52.426;9.424;2022-09-03T15:13:58;100890.94;;;24.81;27.54
8653;BME280;4364;52.426;9.424;2022-09-03T15:16:42;100904.47;;;24.82;27.83
8653;BME280;4364;52.426;9.424;2022-09-03T15:24:46;100892.44;;;24.74;28.05
8653;BME280;4364;52.426;9.424;2022-09-03T15:27:30;100898.53;;;24.84;27.65
8653;BME280;4364;52.426;9.424;2022-09-03T15:35:37;100899.09;;;24.70;27.67
8653;BME280;4364;52.426;9.424;2022-09-03T15:38:24;100898.84;;;24.78;27.40
8653;BME280;4364;52.426;9.424;2022-09-03T15:41:02;100907.44;;;24.70;27.70
8653;BME280;4364;52.426;9.424;2022-09-03T15:43:33;100904.44;;;24.59;27.85
8653;BME280;4364;52.426;9.424;2022-09-03T15:46:10;100901.66;;;24.59;28.04
8653;BME280;4364;52.426;9.424;2022-09-03T15:51:29;100904.50;;;24.43;28.08
8653;BME280;4364;52.426;9.424;2022-09-03T15:54:09;100908.91;;;24.44;27.95
8653;BME280;4364;52.426;9.424;2022-09-03T15:57:09;100901.59;;;24.36;27.80
8653;BME280;4364;52.426;9.424;2022-09-03T16:00:06;100901.50;;;24.32;28.28
8653;BME280;4364;52.426;9.424;2022-09-03T16:05:40;100906.03;;;24.40;27.97
8653;BME280;4364;52.426;9.424;2022-09-03T16:10:46;100910.97;;;24.28;27.83
8653;BME280;4364;52.426;9.424;2022-09-03T16:13:43;100902.38;;;24.17;28.42
8653;BME280;4364;52.426;9.424;2022-09-03T16:16:29;100906.78;;;24.18;27.85
8653;BME280;4364;52.426;9.424;2022-09-03T16:19:08;100898.31;;;24.11;28.00
8653;BME280;4364;52.426;9.424;2022-09-03T16:21:43;100906.19;;;24.09;27.99
8653;BME280;4364;52.426;9.424;2022-09-03T16:27:21;100902.09;;;24.02;28.43
8653;BME280;4364;52.426;9.424;2022-09-03T16:30:10;100909.91;;;23.97;28.63
8653;BME280;4364;52.426;9.424;2022-09-03T16:33:05;100905.72;;;23.87;28.65
8653;BME280;4364;52.426;9.424;2022-09-03T16:35:43;100910.63;;;23.94;28.77
8653;BME280;4364;52.426;9.424;2022-09-03T16:38:22;100917.56;;;23.84;28.22
8653;BME280;4364;52.426;9.424;2022-09-03T16:41:13;100910.28;;;23.79;28.64
8653;BME280;4364;52.426;9.424;2022-09-03T16:49:33;100930.13;;;23.46;28.64